Time;durP1;ratioP1;P1;durP2;ratioP2;P2;SDS_P1;SDS_P2;PMS_P1;PMS_P2;Temp;Humidity;BMP_temperature;BMP_pressure;BME280_temperature;BME280_humidity;BME280_pressure;Samples;Min_cycle;Max_cycle;Signal;HPM_P1;HPM_P2
2021/06/24 00:01:29;;;;;;;12.02;8.63;;;19.50;99.90;;;;;;5051384;28;20025;-86
2021/06/24 00:03:55;;;;;;;11.20;8.45;;;19.50;99.90;;;;;;5064487;28;20036;-85
2021/06/24 00:06:21;;;;;;;14.90;9.25;;;19.50;99.90;;;;;;5068444;28;20111;-86
2021/06/24 00:08:47;;;;;;;10.35;8.45;;;19.40;99.90;;;;;;5064126;28;20032;-85
2021/06/24 00:11:13;;;;;;;12.00;9.18;;;19.40;99.90;;;;;;5067417;28;20048;-85
2021/06/24 00:13:39;;;;;;;10.73;8.02;;;19.30;99.90;;;;;;5054384;28;20037;-84
2021/06/24 00:16:06;;;;;;;11.32;8.93;;;19.30;99.90;;;;;;5067976;28;20031;-85
2021/06/24 00:18:31;;;;;;;11.13;8.40;;;19.30;99.90;;;;;;5065031;28;20047;-84
2021/06/24 00:20:57;;;;;;;11.05;8.63;;;19.30;99.90;;;;;;5064656;28;20036;-84
2021/06/24 00:23:23;;;;;;;12.98;9.27;;;19.30;99.90;;;;;;5065388;28;20029;-85
2021/06/24 00:25:49;;;;;;;9.85;8.80;;;19.30;99.90;;;;;;5056834;28;20028;-85
2021/06/24 00:28:17;;;;;;;15.20;10.15;;;19.30;99.90;;;;;;5069274;28;20036;-84
2021/06/24 00:30:47;;;;;;;10.93;9.45;;;19.30;99.90;;;;;;5066080;28;20482;-85
2021/06/24 00:33:14;;;;;;;11.00;7.85;;;19.20;99.90;;;;;;5066004;28;20036;-85
2021/06/24 00:35:39;;;;;;;13.77;9.60;;;19.10;99.90;;;;;;5066865;28;20017;-85
2021/06/24 00:38:06;;;;;;;14.10;9.18;;;19.10;99.90;;;;;;5066443;28;20082;-85
2021/06/24 00:40:34;;;;;;;16.75;9.35;;;19.10;99.90;;;;;;5060780;28;20758;-84
2021/06/24 00:43:07;;;;;;;21.83;11.23;;;19.20;99.90;;;;;;5054953;28;20060;-83
2021/06/24 00:45:33;;;;;;;12.77;9.57;;;19.10;99.90;;;;;;5062738;28;20482;-84
2021/06/24 00:47:59;;;;;;;11.38;9.13;;;19.00;99.90;;;;;;5046767;28;20036;-84
2021/06/24 00:50:25;;;;;;;17.20;10.68;;;19.00;99.90;;;;;;5056359;28;20013;-85
2021/06/24 00:52:51;;;;;;;11.35;10.18;;;19.00;99.90;;;;;;5067992;28;20032;-84
2021/06/24 00:55:17;;;;;;;13.35;9.85;;;19.10;99.90;;;;;;5056024;28;20025;-84
2021/06/24 00:57:42;;;;;;;9.55;7.95;;;19.10;99.90;;;;;;5068507;28;20106;-84
2021/06/24 01:00:09;;;;;;;14.18;9.63;;;19.10;99.90;;;;;;5067016;28;20017;-85
2021/06/24 01:02:38;;;;;;;10.60;8.60;;;19.00;99.90;;;;;;5052934;28;20491;-85
2021/06/24 01:05:04;;;;;;;11.55;9.68;;;19.10;99.90;;;;;;5058359;28;20049;-84
2021/06/24 01:07:30;;;;;;;16.55;11.10;;;19.00;99.90;;;;;;5069991;28;20043;-84
2021/06/24 01:09:56;;;;;;;12.82;8.05;;;18.90;99.90;;;;;;5067709;28;20029;-84
2021/06/24 01:12:22;;;;;;;11.02;7.82;;;18.80;99.90;;;;;;5066242;28;20205;-85
2021/06/24 01:14:50;;;;;;;10.38;7.80;;;18.90;99.90;;;;;;5060158;28;20031;-85
2021/06/24 01:17:17;;;;;;;11.82;8.10;;;18.90;99.90;;;;;;5071438;28;20045;-84
2021/06/24 01:19:42;;;;;;;9.73;8.75;;;18.80;99.90;;;;;;5073527;28;20478;-84
2021/06/24 01:22:09;;;;;;;16.77;8.10;;;18.80;99.90;;;;;;5070469;28;20044;-85
2021/06/24 01:24:34;;;;;;;10.73;8.32;;;18.80;99.90;;;;;;5069468;28;20032;-84
2021/06/24 01:27:00;;;;;;;10.77;7.85;;;18.80;99.90;;;;;;5056364;28;20062;-85
2021/06/24 01:29:26;;;;;;;12.57;8.38;;;18.80;99.90;;;;;;5060554;28;20032;-85
2021/06/24 01:31:52;;;;;;;11.07;7.30;;;18.80;99.90;;;;;;5068531;28;20028;-85
2021/06/24 01:34:17;;;;;;;10.77;7.65;;;18.90;99.90;;;;;;5073077;28;20033;-84
2021/06/24 01:36:43;;;;;;;11.18;8.48;;;18.90;99.90;;;;;;5066279;28;20028;-85
2021/06/24 01:39:12;;;;;;;10.25;7.80;;;18.80;99.90;;;;;;5050945;28;20098;-84
2021/06/24 01:41:38;;;;;;;13.73;8.90;;;18.70;99.90;;;;;;5060990;28;20020;-84
2021/06/24 01:44:04;;;;;;;8.88;6.65;;;18.60;99.90;;;;;;5070730;28;20028;-84
2021/06/24 01:46:30;;;;;;;9.48;6.85;;;18.60;99.90;;;;;;5060259;28;20029;-85
2021/06/24 01:48:55;;;;;;;11.68;8.57;;;18.60;99.90;;;;;;5057919;28;20028;-84
2021/06/24 01:51:22;;;;;;;10.98;7.43;;;18.60;99.90;;;;;;5065913;28;20058;-84
2021/06/24 01:53:49;;;;;;;9.55;7.18;;;18.70;99.90;;;;;;5071140;28;20025;-84
2021/06/24 01:56:15;;;;;;;9.30;8.15;;;18.70;99.90;;;;;;5070030;28;20101;-84
2021/06/24 01:58:41;;;;;;;8.20;6.90;;;18.70;99.90;;;;;;5056756;28;20483;-84
2021/06/24 02:01:06;;;;;;;8.20;7.40;;;18.70;99.90;;;;;;5051435;28;20044;-84
2021/06/24 02:03:37;;;;;;;11.20;7.65;;;18.70;99.90;;;;;;5054450;28;20028;-85
2021/06/24 02:06:05;;;;;;;10.82;7.85;;;18.60;99.90;;;;;;5072223;28;20020;-85
2021/06/24 02:08:35;;;;;;;8.90;7.95;;;18.60;99.90;;;;;;5059865;28;20032;-85
2021/06/24 02:11:01;;;;;;;10.80;9.02;;;18.60;99.90;;;;;;5061112;28;20043;-85
2021/06/24 02:13:27;;;;;;;10.25;8.75;;;18.60;99.90;;;;;;5057434;28;20021;-85
2021/06/24 02:15:53;;;;;;;8.80;7.47;;;18.60;99.90;;;;;;5069414;28;20495;-85
2021/06/24 02:18:18;;;;;;;8.15;7.35;;;18.60;99.90;;;;;;5066915;28;20119;-86
2021/06/24 02:20:44;;;;;;;6.57;5.88;;;18.60;99.90;;;;;;5070350;28;20044;-86
2021/06/24 02:23:10;;;;;;;7.38;6.78;;;18.50;99.90;;;;;;5058252;28;20028;-85
2021/06/24 02:25:36;;;;;;;8.23;6.18;;;18.60;99.90;;;;;;5055444;28;20029;-85
2021/06/24 02:28:03;;;;;;;10.15;8.23;;;18.50;99.90;;;;;;5065233;28;20024;-85
2021/06/24 02:30:29;;;;;;;10.77;8.23;;;18.60;99.90;;;;;;5069714;28;20375;-85
2021/06/24 02:32:55;;;;;;;10.88;7.95;;;18.60;99.90;;;;;;5049652;28;20378;-85
2021/06/24 02:35:21;;;;;;;10.98;7.57;;;18.60;99.90;;;;;;5074519;28;20103;-85
2021/06/24 02:37:48;;;;;;;11.73;8.07;;;18.60;99.90;;;;;;5057558;28;20079;-85
2021/06/24 02:40:16;;;;;;;12.20;8.43;;;18.60;99.90;;;;;;5061859;28;20029;-84
2021/06/24 02:42:42;;;;;;;11.60;8.45;;;18.60;99.90;;;;;;5070061;28;20485;-85
2021/06/24 02:45:10;;;;;;;13.00;9.15;;;18.50;99.90;;;;;;5073203;28;20033;-85
2021/06/24 02:47:36;;;;;;;10.10;8.43;;;18.60;99.90;;;;;;5066872;28;20023;-84
2021/06/24 02:50:03;;;;;;;6.88;6.13;;;18.60;99.90;;;;;;5074143;28;20029;-85
2021/06/24 02:52:30;;;;;;;11.13;7.82;;;18.70;99.90;;;;;;5073185;28;20017;-84
2021/06/24 02:54:56;;;;;;;10.85;8.02;;;18.70;99.90;;;;;;5065346;28;20028;-85
2021/06/24 02:57:21;;;;;;;9.43;8.45;;;18.70;99.90;;;;;;5067193;28;20044;-84
2021/06/24 02:59:48;;;;;;;9.95;8.18;;;18.70;99.90;;;;;;5074300;28;20040;-85
2021/06/24 03:02:14;;;;;;;13.18;9.50;;;18.80;99.90;;;;;;5072152;28;20017;-84
2021/06/24 03:04:40;;;;;;;11.55;7.85;;;18.80;99.90;;;;;;5069999;28;20032;-85
2021/06/24 03:07:06;;;;;;;7.85;5.82;;;18.80;99.90;;;;;;5070603;28;20340;-85
2021/06/24 03:09:32;;;;;;;11.68;8.38;;;18.70;99.90;;;;;;5065452;28;20040;-84
2021/06/24 03:11:57;;;;;;;11.70;7.93;;;18.80;99.90;;;;;;5071357;28;20028;-84
2021/06/24 03:14:23;;;;;;;13.73;7.88;;;18.90;99.90;;;;;;5055318;28;20477;-84
2021/06/24 03:16:49;;;;;;;11.65;7.72;;;18.90;99.90;;;;;;5068785;28;20378;-85
2021/06/24 03:19:15;;;;;;;9.73;8.60;;;19.00;99.90;;;;;;5072549;28;20382;-85
2021/06/24 03:21:41;;;;;;;13.52;9.57;;;19.00;99.90;;;;;;5073552;28;20048;-86
2021/06/24 03:24:07;;;;;;;15.27;10.50;;;19.10;99.90;;;;;;5068580;28;20032;-84
2021/06/24 03:26:34;;;;;;;11.00;9.90;;;19.20;99.90;;;;;;5071225;28;20075;-85
2021/06/24 03:29:00;;;;;;;17.98;11.90;;;19.30;99.90;;;;;;5057389;28;20020;-85
2021/06/24 03:31:25;;;;;;;12.60;10.95;;;19.30;99.90;;;;;;5070450;28;20024;-85
2021/06/24 03:33:51;;;;;;;17.05;12.30;;;19.40;99.90;;;;;;5062539;28;20371;-85
2021/06/24 03:36:18;;;;;;;13.88;11.13;;;19.50;99.90;;;;;;5067032;28;20047;-85
2021/06/24 03:38:46;;;;;;;19.50;12.00;;;19.60;99.90;;;;;;5074679;28;20060;-85
2021/06/24 03:41:13;;;;;;;13.40;12.02;;;19.80;99.90;;;;;;5072472;28;20028;-85
2021/06/24 03:43:40;;;;;;;17.77;14.18;;;19.90;99.90;;;;;;5072033;28;20028;-85
2021/06/24 03:46:06;;;;;;;15.15;13.55;;;20.10;99.90;;;;;;5071085;28;20029;-85
2021/06/24 03:48:32;;;;;;;19.70;16.30;;;20.20;99.90;;;;;;5069927;28;20040;-85
2021/06/24 03:50:58;;;;;;;19.40;17.40;;;20.40;99.90;;;;;;5070630;28;20039;-85
2021/06/24 03:53:23;;;;;;;24.05;20.85;;;20.50;99.90;;;;;;5059758;28;20470;-86
2021/06/24 03:55:49;;;;;;;30.45;20.75;;;20.60;99.90;;;;;;5072920;28;20031;-85
2021/06/24 03:58:15;;;;;;;23.05;20.75;;;20.60;99.90;;;;;;5070472;28;20049;-85
2021/06/24 04:00:46;;;;;;;23.58;19.15;;;20.50;99.90;;;;;;5049732;28;20028;-85
2021/06/24 04:03:12;;;;;;;24.02;21.63;;;20.50;99.90;;;;;;5072129;28;20033;-86
2021/06/24 04:05:38;;;;;;;22.77;19.90;;;20.40;99.90;;;;;;5072901;28;20432;-84
2021/06/24 04:08:06;;;;;;;21.88;19.77;;;20.40;99.90;;;;;;5072875;28;20055;-84
2021/06/24 04:10:32;;;;;;;23.00;20.90;;;20.40;99.90;;;;;;5071766;28;20032;-85
2021/06/24 04:12:59;;;;;;;24.52;22.02;;;20.50;99.90;;;;;;5074264;28;20387;-85
2021/06/24 04:15:26;;;;;;;24.45;21.65;;;20.40;99.90;;;;;;5070626;28;20031;-85
2021/06/24 04:17:52;;;;;;;25.13;22.13;;;20.50;99.90;;;;;;5062527;28;20040;-86
2021/06/24 04:20:19;;;;;;;25.60;23.15;;;20.50;99.90;;;;;;5066668;28;20055;-86
2021/06/24 04:22:46;;;;;;;24.35;21.77;;;20.50;99.90;;;;;;5070599;28;20012;-85
2021/06/24 04:25:13;;;;;;;23.40;21.27;;;20.50;99.90;;;;;;5065369;28;20521;-85
2021/06/24 04:27:40;;;;;;;26.45;23.75;;;20.50;99.90;;;;;;5072260;28;20039;-85
2021/06/24 04:30:07;;;;;;;24.30;21.90;;;20.50;99.90;;;;;;5067807;28;20028;-86
2021/06/24 04:32:32;;;;;;;26.85;24.15;;;20.60;99.90;;;;;;5059897;28;20025;-86
2021/06/24 04:34:58;;;;;;;27.63;24.88;;;20.60;99.90;;;;;;5072170;28;20024;-85
2021/06/24 04:37:24;;;;;;;26.45;23.77;;;20.60;99.90;;;;;;5072413;28;20017;-85
2021/06/24 04:39:49;;;;;;;25.92;23.50;;;20.70;99.90;;;;;;5073614;28;20052;-86
2021/06/24 04:42:15;;;;;;;27.17;24.20;;;20.70;99.90;;;;;;5073018;28;20111;-85
2021/06/24 04:44:41;;;;;;;25.52;23.15;;;20.70;99.90;;;;;;5071686;28;20024;-86
2021/06/24 04:47:07;;;;;;;25.50;22.90;;;20.70;99.90;;;;;;5071782;28;20165;-86
2021/06/24 04:49:33;;;;;;;25.45;22.77;;;20.70;99.90;;;;;;5067025;28;20040;-86
2021/06/24 04:51:58;;;;;;;22.77;20.58;;;20.70;99.90;;;;;;5064203;28;20017;-85
2021/06/24 04:54:24;;;;;;;25.30;22.75;;;20.80;99.90;;;;;;5067142;28;20028;-86
2021/06/24 04:56:50;;;;;;;25.85;22.42;;;20.90;99.90;;;;;;5069632;28;20024;-85
2021/06/24 04:59:16;;;;;;;26.98;23.63;;;20.90;99.90;;;;;;5058172;28;20024;-85
2021/06/24 05:01:41;;;;;;;25.92;23.52;;;20.90;99.90;;;;;;5057728;28;20513;-85
2021/06/24 05:04:07;;;;;;;24.52;22.35;;;21.00;99.90;;;;;;5068515;28;20033;-85
2021/06/24 05:06:33;;;;;;;25.13;22.58;;;21.00;99.90;;;;;;5063614;28;20035;-86
2021/06/24 05:09:00;;;;;;;26.00;23.48;;;21.20;99.90;;;;;;5071720;28;20390;-86
2021/06/24 05:11:26;;;;;;;25.00;22.65;;;21.30;99.90;;;;;;5071932;28;20100;-86
2021/06/24 05:13:51;;;;;;;25.98;23.48;;;21.30;99.90;;;;;;5064884;28;20167;-85
2021/06/24 05:16:17;;;;;;;23.38;21.38;;;21.30;99.90;;;;;;5069106;28;20542;-85
2021/06/24 05:18:43;;;;;;;25.75;23.25;;;21.50;99.90;;;;;;5063430;28;20049;-86
2021/06/24 05:21:09;;;;;;;26.45;23.73;;;21.60;99.90;;;;;;5071371;28;20049;-84
2021/06/24 05:23:35;;;;;;;22.10;19.70;;;21.80;99.90;;;;;;5065224;28;20379;-86
2021/06/24 05:26:01;;;;;;;24.58;22.10;;;22.00;99.90;;;;;;5071102;28;20024;-85
2021/06/24 05:28:27;;;;;;;23.30;20.92;;;22.00;99.90;;;;;;5068542;28;20036;-86
2021/06/24 05:30:53;;;;;;;25.88;22.75;;;22.20;99.90;;;;;;5071969;28;20377;-86
2021/06/24 05:33:19;;;;;;;25.48;22.98;;;22.40;99.90;;;;;;5070749;28;20350;-85
2021/06/24 05:35:46;;;;;;;20.88;18.88;;;22.40;99.90;;;;;;5049142;28;20017;-86
2021/06/24 05:38:13;;;;;;;20.83;18.77;;;22.60;99.90;;;;;;5070380;28;20098;-86
2021/06/24 05:40:40;;;;;;;22.00;19.83;;;22.70;99.90;;;;;;5054137;28;20024;-86
2021/06/24 05:43:05;;;;;;;23.33;20.88;;;22.90;99.90;;;;;;5049463;28;20028;-85
2021/06/24 05:45:32;;;;;;;23.63;20.83;;;23.00;99.90;;;;;;5067806;28;20122;-86
2021/06/24 05:47:58;;;;;;;22.30;20.05;;;23.20;99.90;;;;;;5071526;28;20450;-87
2021/06/24 05:50:25;;;;;;;20.48;18.08;;;23.30;99.90;;;;;;5067105;28;20060;-86
2021/06/24 05:52:53;;;;;;;23.50;20.77;;;23.40;99.90;;;;;;5069168;28;20090;-85
2021/06/24 05:55:20;;;;;;;23.25;20.65;;;23.40;99.90;;;;;;5062506;28;20043;-85
2021/06/24 05:57:45;;;;;;;22.52;20.13;;;23.50;99.90;;;;;;5052074;28;20082;-85
2021/06/24 06:00:13;;;;;;;25.30;22.40;;;23.60;99.90;;;;;;5064167;28;20033;-85
2021/06/24 06:02:40;;;;;;;25.42;22.25;;;23.60;99.90;;;;;;5065556;28;20491;-86
2021/06/24 06:05:06;;;;;;;22.88;20.40;;;23.70;99.90;;;;;;5063140;28;20489;-86
2021/06/24 06:07:33;;;;;;;25.70;22.08;;;23.70;99.90;;;;;;5042835;28;20464;-86
2021/06/24 06:09:58;;;;;;;23.98;21.23;;;23.90;99.90;;;;;;5071947;28;20035;-85
2021/06/24 06:12:26;;;;;;;22.20;20.05;;;23.90;99.90;;;;;;5069532;28;20378;-86
2021/06/24 06:14:52;;;;;;;21.80;19.65;;;23.90;99.90;;;;;;5074488;28;20032;-86
2021/06/24 06:17:18;;;;;;;23.08;20.83;;;23.90;99.90;;;;;;5074710;28;20019;-85
2021/06/24 06:19:44;;;;;;;21.98;20.00;;;23.90;99.90;;;;;;5061857;28;20040;-86
2021/06/24 06:22:10;;;;;;;30.83;20.95;;;24.00;99.90;;;;;;5072419;28;20470;-86
2021/06/24 06:24:35;;;;;;;23.38;19.75;;;24.00;99.90;;;;;;5071058;28;20532;-85
2021/06/24 06:27:01;;;;;;;22.15;19.40;;;24.00;99.90;;;;;;5071310;28;20021;-85
2021/06/24 06:29:27;;;;;;;23.02;20.52;;;24.00;99.90;;;;;;5069491;28;20414;-86
2021/06/24 06:31:53;;;;;;;22.90;20.67;;;24.00;99.90;;;;;;5062919;28;20762;-86
2021/06/24 06:34:18;;;;;;;21.25;19.25;;;23.90;99.90;;;;;;5060846;28;20112;-86
2021/06/24 06:36:44;;;;;;;22.75;20.55;;;23.90;99.90;;;;;;5063221;28;20089;-86
2021/06/24 06:39:09;;;;;;;21.75;19.55;;;23.90;99.90;;;;;;5067160;28;20044;-86
2021/06/24 06:41:35;;;;;;;20.80;18.85;;;24.00;99.90;;;;;;5072138;28;20020;-86
2021/06/24 06:44:01;;;;;;;21.08;18.67;;;24.10;99.90;;;;;;5067529;28;20098;-85
2021/06/24 06:46:26;;;;;;;20.38;18.30;;;24.10;99.90;;;;;;5064493;28;20024;-86
2021/06/24 06:48:53;;;;;;;20.52;18.42;;;24.10;99.90;;;;;;5063787;28;20028;-84
2021/06/24 06:51:22;;;;;;;20.42;18.30;;;24.10;99.90;;;;;;5065448;28;20078;-85
2021/06/24 06:53:48;;;;;;;20.45;18.30;;;24.10;99.90;;;;;;5059450;28;20410;-87
2021/06/24 06:56:14;;;;;;;20.55;18.45;;;24.00;99.90;;;;;;5064495;28;20089;-85
2021/06/24 06:58:40;;;;;;;19.52;17.65;;;23.90;99.90;;;;;;5058424;28;20078;-85
2021/06/24 07:01:05;;;;;;;20.40;18.27;;;23.90;99.90;;;;;;5039367;28;20025;-86
2021/06/24 07:03:31;;;;;;;18.30;16.45;;;23.90;99.90;;;;;;5046441;28;20081;-85
2021/06/24 07:05:56;;;;;;;18.08;16.45;;;24.00;99.90;;;;;;5062660;28;20060;-86
2021/06/24 07:08:22;;;;;;;17.35;15.52;;;24.10;99.90;;;;;;5073593;28;20031;-86
2021/06/24 07:10:48;;;;;;;17.08;15.32;;;24.10;99.90;;;;;;5072464;28;20422;-86
2021/06/24 07:13:14;;;;;;;18.45;16.05;;;24.10;99.90;;;;;;5062307;28;20543;-86
2021/06/24 07:15:39;;;;;;;18.08;16.23;;;24.10;99.90;;;;;;5052677;28;20486;-87
2021/06/24 07:18:06;;;;;;;18.48;16.77;;;24.10;99.90;;;;;;5065490;28;20111;-86
2021/06/24 07:20:32;;;;;;;19.80;17.27;;;24.00;99.90;;;;;;5073031;28;20045;-86
2021/06/24 07:22:58;;;;;;;17.88;16.17;;;23.80;99.90;;;;;;5059946;28;20056;-85
2021/06/24 07:25:23;;;;;;;19.67;16.58;;;23.60;99.90;;;;;;5058340;28;20454;-85
2021/06/24 07:27:51;;;;;;;22.27;18.75;;;23.60;99.90;;;;;;5061791;28;20100;-87
2021/06/24 07:30:17;;;;;;;20.92;18.88;;;23.40;99.90;;;;;;5062596;28;20053;-85
2021/06/24 07:32:43;;;;;;;19.33;17.48;;;23.20;99.90;;;;;;5043467;28;20362;-85
2021/06/24 07:35:09;;;;;;;18.27;16.60;;;23.10;99.90;;;;;;5066067;28;20040;-85
2021/06/24 07:37:35;;;;;;;22.23;19.75;;;22.90;99.90;;;;;;5050156;28;20589;-84
2021/06/24 07:40:05;;;;;;;13.48;12.15;;;22.60;99.90;;;;;;5065504;28;20047;-84
2021/06/24 07:42:31;;;;;;;16.40;10.02;;;22.30;99.90;;;;;;5061308;28;20475;-83
2021/06/24 07:44:57;;;;;;;8.45;7.20;;;21.80;99.90;;;;;;5061196;28;20756;-85
2021/06/24 07:47:22;;;;;;;14.10;8.18;;;21.20;99.90;;;;;;5063151;28;20052;-84
2021/06/24 07:49:48;;;;;;;9.68;5.90;;;20.80;99.90;;;;;;5066027;28;20020;-84
2021/06/24 07:52:15;;;;;;;12.05;5.03;;;20.60;99.90;;;;;;5067895;28;20161;-83
2021/06/24 07:54:40;;;;;;;11.77;4.40;;;20.20;99.90;;;;;;5063470;28;20103;-84
2021/06/24 07:57:06;;;;;;;9.82;5.30;;;20.00;99.90;;;;;;5061375;28;20108;-84
2021/06/24 07:59:34;;;;;;;13.45;5.72;;;19.90;99.90;;;;;;5062992;28;20043;-86
2021/06/24 08:01:59;;;;;;;11.80;6.03;;;19.80;99.90;;;;;;5045601;28;20115;-86
2021/06/24 08:04:25;;;;;;;12.77;5.80;;;19.70;99.90;;;;;;5065755;28;20111;-86
2021/06/24 08:06:52;;;;;;;11.30;4.00;;;19.60;99.90;;;;;;5065082;28;20124;-85
2021/06/24 08:09:18;;;;;;;8.20;3.85;;;19.60;99.90;;;;;;5067927;28;20031;-87
2021/06/24 08:11:44;;;;;;;6.65;3.17;;;19.40;99.90;;;;;;5066498;28;20025;-85
2021/06/24 08:14:09;;;;;;;8.75;3.17;;;19.40;99.90;;;;;;5056337;28;20024;-86
2021/06/24 08:16:35;;;;;;;13.82;4.68;;;19.40;99.90;;;;;;5054726;28;20087;-84
2021/06/24 08:19:02;;;;;;;12.95;4.88;;;19.40;99.90;;;;;;5054187;28;20049;-83
2021/06/24 08:21:28;;;;;;;10.00;4.32;;;19.40;99.90;;;;;;5054905;28;20037;-86
2021/06/24 08:23:54;;;;;;;10.18;4.05;;;19.40;99.90;;;;;;5060136;28;20044;-84
2021/06/24 08:26:20;;;;;;;9.05;3.63;;;19.60;99.90;;;;;;5056662;28;20020;-85
2021/06/24 08:28:45;;;;;;;8.35;3.22;;;19.80;99.90;;;;;;5052544;28;20466;-84
2021/06/24 08:31:11;;;;;;;9.35;4.18;;;19.90;99.90;;;;;;5052770;28;20056;-85
2021/06/24 08:33:37;;;;;;;7.75;4.15;;;19.90;99.90;;;;;;5053412;28;20059;-84
2021/06/24 08:36:05;;;;;;;11.57;4.13;;;19.90;99.90;;;;;;5061077;28;20475;-83
2021/06/24 08:38:31;;;;;;;7.22;4.93;;;19.90;99.90;;;;;;5055189;28;20119;-85
2021/06/24 08:40:56;;;;;;;14.98;5.57;;;19.90;99.90;;;;;;5054829;28;20108;-85
2021/06/24 08:43:22;;;;;;;10.52;4.28;;;20.00;99.90;;;;;;5055962;28;20068;-86
2021/06/24 08:45:48;;;;;;;9.57;4.22;;;20.00;99.90;;;;;;5051821;28;20479;-85
2021/06/24 08:48:15;;;;;;;11.60;5.43;;;20.00;99.90;;;;;;5056125;28;20028;-83
2021/06/24 08:50:46;;;;;;;10.73;6.28;;;20.00;99.90;;;;;;5040978;28;20032;-86
2021/06/24 08:53:12;;;;;;;12.65;4.43;;;20.00;99.90;;;;;;5036634;28;20039;-84
2021/06/24 08:55:43;;;;;;;10.90;5.03;;;20.10;99.90;;;;;;5058395;28;20032;-85
2021/06/24 08:58:09;;;;;;;8.85;5.45;;;20.00;99.90;;;;;;5057541;28;20406;-87
2021/06/24 09:00:36;;;;;;;12.38;5.57;;;20.00;99.90;;;;;;5052974;28;20025;-84
2021/06/24 09:03:21;;;;;;;11.75;5.22;;;20.10;99.90;;;;;;5057852;28;20029;-85
2021/06/24 09:05:51;;;;;;;9.85;4.88;;;20.10;99.90;;;;;;5059538;28;20385;-86
2021/06/24 09:08:46;;;;;;;11.40;4.90;;;20.10;99.90;;;;;;5055001;28;20036;-87
2021/06/24 09:11:22;;;;;;;8.07;3.65;;;20.20;99.90;;;;;;5050650;28;20040;-86
2021/06/24 09:14:11;;;;;;;10.93;4.60;;;20.20;99.90;;;;;;5056683;28;20112;-85
2021/06/24 09:16:42;;;;;;;8.48;4.20;;;20.20;99.90;;;;;;5054786;28;20013;-86
2021/06/24 09:19:21;;;;;;;8.50;3.63;;;20.30;99.90;;;;;;5053005;28;20041;-85
2021/06/24 09:22:07;;;;;;;8.45;3.75;;;20.30;99.90;;;;;;5033761;28;20516;-86
2021/06/24 09:24:39;;;;;;;10.25;4.90;;;20.40;99.90;;;;;;5041521;28;20063;-87
2021/06/24 09:27:22;;;;;;;7.13;4.60;;;20.40;99.90;;;;;;5051734;28;20043;-86
2021/06/24 09:30:09;;;;;;;7.28;3.90;;;20.60;99.90;;;;;;5053493;28;20060;-86
2021/06/24 09:32:45;;;;;;;6.97;4.15;;;20.70;99.90;;;;;;5063558;28;20035;-85
2021/06/24 09:35:22;;;;;;;8.18;4.78;;;20.80;99.90;;;;;;5045245;28;20036;-84
2021/06/24 09:38:18;;;;;;;9.32;3.72;;;20.80;99.90;;;;;;5060025;28;20047;-86
2021/06/24 09:40:45;;;;;;;6.25;4.22;;;21.00;99.90;;;;;;5032748;28;20033;-85
2021/06/24 09:43:31;;;;;;;8.02;3.63;;;21.10;99.90;;;;;;5059007;28;20025;-86
2021/06/24 09:46:14;;;;;;;9.75;4.10;;;21.30;99.90;;;;;;5064178;28;20024;-86
2021/06/24 09:48:46;;;;;;;9.25;3.78;;;21.50;99.90;;;;;;5043801;28;20036;-84
2021/06/24 09:51:17;;;;;;;5.80;3.45;;;21.70;99.90;;;;;;5059776;28;20064;-85
2021/06/24 09:53:47;;;;;;;8.88;3.95;;;21.90;99.90;;;;;;5057860;28;20028;-86
2021/06/24 09:56:26;;;;;;;8.15;4.10;;;22.00;99.90;;;;;;5057402;28;20029;-87
2021/06/24 09:58:53;;;;;;;10.85;3.85;;;22.10;99.90;;;;;;5051331;28;20041;-84
2021/06/24 10:01:35;;;;;;;10.00;3.72;;;22.10;99.90;;;;;;5056703;28;20080;-86
2021/06/24 10:04:02;;;;;;;8.20;3.92;;;22.20;99.90;;;;;;5057744;28;20025;-85
2021/06/24 10:06:28;;;;;;;14.10;4.38;;;22.50;99.90;;;;;;5062207;28;20029;-88
2021/06/24 10:08:55;;;;;;;9.95;3.85;;;22.70;99.90;;;;;;5057457;28;20066;-87
2021/06/24 10:11:22;;;;;;;7.57;3.13;;;22.90;99.90;;;;;;5058494;28;20020;-86
2021/06/24 10:13:48;;;;;;;6.97;3.17;;;23.20;99.90;;;;;;5056137;28;20021;-86
2021/06/24 10:16:16;;;;;;;6.70;3.28;;;23.30;99.90;;;;;;5057141;28;20471;-87
2021/06/24 10:18:46;;;;;;;8.38;3.30;;;23.50;99.90;;;;;;5059778;28;20302;-88
2021/06/24 10:21:13;;;;;;;;;;;23.70;99.90;;;;;;5056750;28;20128;-87
2021/06/24 10:23:40;;;;;;;5.38;2.70;;;23.80;99.90;;;;;;5057348;28;20009;-87
2021/06/24 10:26:06;;;;;;;6.32;3.45;;;24.10;99.90;;;;;;5058300;28;20028;-89
2021/06/24 10:28:32;;;;;;;6.93;3.55;;;24.20;99.90;;;;;;5062137;28;20071;-86
2021/06/24 10:30:58;;;;;;;7.05;4.22;;;24.40;99.90;;;;;;5061009;28;20561;-86
2021/06/24 10:33:23;;;;;;;6.43;3.40;;;24.50;99.90;;;;;;5066472;28;20025;-86
2021/06/24 10:35:53;;;;;;;8.18;3.40;;;24.50;99.90;;;;;;5059111;28;20036;-85
2021/06/24 10:38:20;;;;;;;7.25;3.20;;;24.50;99.90;;;;;;5066376;28;20858;-88
2021/06/24 10:40:57;;;;;;;8.98;3.00;;;24.80;99.90;;;;;;5056769;28;20051;-86
2021/06/24 10:43:24;;;;;;;9.02;4.22;;;25.00;99.90;;;;;;5053374;28;20033;-88
2021/06/24 10:46:10;;;;;;;9.90;3.60;;;25.20;99.90;;;;;;5061332;28;20037;-88
2021/06/24 10:48:36;;;;;;;8.00;3.10;;;25.30;99.90;;;;;;5040693;28;20490;-88
2021/06/24 10:51:07;;;;;;;7.45;3.30;;;25.50;99.90;;;;;;5060801;28;20058;-88
2021/06/24 10:53:36;;;;;;;7.95;3.40;;;25.50;99.90;;;;;;5058436;28;20017;-88
2021/06/24 10:56:20;;;;;;;8.85;3.35;;;25.60;99.90;;;;;;5058528;28;20082;-88
2021/06/24 10:58:46;;;;;;;7.65;4.07;;;25.50;99.90;;;;;;5055341;28;20708;-90
2021/06/24 11:01:12;;;;;;;11.20;3.20;;;25.60;99.90;;;;;;5063711;28;20041;-90
2021/06/24 11:03:43;;;;;;;5.38;3.45;;;25.70;99.90;;;;;;5060932;28;20065;-89
2021/06/24 11:06:28;;;;;;;5.50;3.28;;;25.60;99.90;;;;;;5057026;28;20033;-89
2021/06/24 11:09:13;;;;;;;6.28;3.75;;;25.60;99.90;;;;;;5046389;28;20068;-90
2021/06/24 11:11:44;;;;;;;7.18;3.40;;;25.70;99.90;;;;;;5058432;28;20024;-89
2021/06/24 11:14:14;;;;;;;10.13;3.78;;;25.60;99.90;;;;;;5060279;28;20048;-90
2021/06/24 11:16:40;;;;;;;10.13;3.67;;;25.70;99.90;;;;;;5026981;28;20034;-88
2021/06/24 11:19:08;;;;;;;7.40;3.58;;;25.70;99.90;;;;;;5061909;28;20571;-90
2021/06/24 11:21:33;;;;;;;10.27;3.63;;;25.70;99.90;;;;;;5066586;28;20147;-90
2021/06/24 11:24:00;;;;;;;8.32;3.10;;;25.70;99.90;;;;;;5043917;28;20546;-88
2021/06/24 11:26:26;;;;;;;6.30;2.72;;;25.80;99.90;;;;;;5056734;28;20016;-89
2021/06/24 11:28:59;;;;;;;8.15;3.20;;;25.90;99.90;;;;;;5056592;28;20032;-89
2021/06/24 11:31:39;;;;;;;6.53;3.20;;;25.90;99.90;;;;;;5062562;28;20048;-88
2021/06/24 11:34:19;;;;;;;;;;;25.90;99.90;;;;;;5061313;28;20040;-89
2021/06/24 11:36:56;;;;;;;6.57;3.45;;;25.90;99.90;;;;;;5064850;28;20380;-89
2021/06/24 11:39:27;;;;;;;7.43;3.13;;;25.90;99.90;;;;;;5055429;28;20490;-90
2021/06/24 11:41:54;;;;;;;6.32;2.97;;;25.90;99.90;;;;;;5044564;28;20025;-88
2021/06/24 11:44:31;;;;;;;8.32;3.15;;;25.80;99.90;;;;;;5059253;28;20031;-88
2021/06/24 11:47:07;;;;;;;8.57;3.00;;;25.90;99.90;;;;;;5063087;28;20036;-90
2021/06/24 12:04:11;;;;;;;8.52;3.95;;;26.30;99.90;;;;;;5059906;28;20146;-88
2021/06/24 12:06:54;;;;;;;6.03;3.10;;;26.40;99.90;;;;;;5055597;28;20021;-87
2021/06/24 12:09:23;;;;;;;8.20;3.55;;;26.50;99.90;;;;;;5052892;28;20028;-88
2021/06/24 12:11:59;;;;;;;4.53;2.90;;;26.60;99.90;;;;;;5056607;28;20028;-88
2021/06/24 12:14:33;;;;;;;4.75;2.70;;;26.50;99.90;;;;;;5060801;28;20021;-90
2021/06/24 12:17:22;;;;;;;6.30;3.58;;;26.60;99.90;;;;;;5053628;28;20031;-87
2021/06/24 12:19:53;;;;;;;3.97;2.42;;;26.70;99.90;;;;;;5051033;28;20086;-86
2021/06/24 12:22:34;;;;;;;4.95;3.22;;;26.80;99.90;;;;;;5062458;28;20031;-87
2021/06/24 12:25:01;;;;;;;7.55;3.30;;;26.90;99.90;;;;;;5059611;28;20040;-87
2021/06/24 12:27:32;;;;;;;10.20;3.80;;;26.80;99.90;;;;;;5059769;28;20017;-85
2021/06/24 12:30:02;;;;;;;6.15;2.92;;;26.90;99.90;;;;;;5059331;28;20024;-87
2021/06/24 12:32:27;;;;;;;10.38;4.22;;;26.90;99.90;;;;;;5063970;28;20029;-85
2021/06/24 12:34:57;;;;;;;4.05;2.78;;;26.90;99.90;;;;;;5038117;28;20032;-86
2021/06/24 12:37:41;;;;;;;7.72;3.22;;;27.00;99.90;;;;;;5053286;28;20039;-87
2021/06/24 12:40:11;;;;;;;8.77;3.50;;;27.00;99.90;;;;;;5061647;28;20476;-88
2021/06/24 12:43:04;;;;;;;6.10;3.38;;;27.00;99.90;;;;;;5056336;28;20032;-87
2021/06/24 12:45:32;;;;;;;5.97;3.45;;;27.10;99.90;;;;;;5052421;28;20041;-85
2021/06/24 12:47:59;;;;;;;6.50;3.03;;;27.20;99.90;;;;;;5041470;28;20160;-88
2021/06/24 12:50:31;;;;;;;5.72;3.40;;;27.20;99.90;;;;;;5057700;28;20473;-87
2021/06/24 12:53:13;;;;;;;7.72;3.55;;;27.20;99.90;;;;;;5055891;28;20040;-90
2021/06/24 12:55:45;;;;;;;18.38;4.32;;;27.30;99.90;;;;;;5053430;28;20034;-87
2021/06/24 12:58:17;;;;;;;7.97;3.35;;;27.40;99.90;;;;;;5057207;28;20037;-89